ENAT/ALF METAR and TAF weather

Enter ICAO airport designator
Station Type Date Time Source
ENAT METAR 2020/02/21 14:50 UTC NOAA

ENAT 211450Z 17004KT 140V200 CAVOK 00/M05 Q0975 RMK WIND 700FT 18022KT


Station Type Date Time Source
ENAT Decoded METAR 2020/02/21 14:50 UTC NOAA

Alta Lufthavn, Norway (ENAT) 69-59N 023-22E 3M
Feb 21, 2020 - 09:50 AM EST / 2020.02.21 1450 UTC
Wind: from the S (170 degrees) at 5 MPH (4 KT) (direction variable):0
Visibility: greater than 7 mile(s):0
Temperature: 32 F (0 C)
Windchill: 26 F (-3 C):1
Dew Point: 23 F (-5 C)
Relative Humidity: 69%
Pressure (altimeter): 28.79 in. Hg (0975 hPa)
ob: ENAT 211450Z 17004KT 140V200 CAVOK 00/M05 Q0975 RMK WIND 700FT 18022KT
cycle: 15

Station Type Date Time Source
ENAT TAF 2008/11/30 23:00 UTC NOAA

TAF TAF ENAT 302300Z 3023/0102 22005KT 7000 -SN FEW008 BKN020
TEMPO 3023/0102 3000 -SN VV012

Example: see airport list